WetterOnline ( http://www.wetteronline.de )

Wetter aktuell Arnheim

Aktuelles Wetter: Deelen (47m)

6-stündlich | Neueste Meldungen
Ortszeit Temperatur Wetter
Mi, 17.10. 8:00 9.0° C bedeckt
Mi, 17.10. 2:00 15.6° C bedeckt
Di, 16.10. 20:00 15.6° C wolkig
Di, 16.10. 14:00 22.6° C bedeckt
Di, 16.10. 8:00 10.7° C bedeckt
Di, 16.10. 2:00 13.7° C bedeckt
Mo, 15.10. 20:00 17.8° C bedeckt
Mo, 15.10. 14:00 21.2° C bewölkt
Ortszeit Temperatur Wetter
Mi, 17.10. 13:25 19° C wolkig
Mi, 17.10. 13:00 18.7° C wolkig
Mi, 17.10. 12:55 18° C wolkig
Mi, 17.10. 12:25 18° C wolkig
Mi, 17.10. 12:00 17.6° C wolkig
Mi, 17.10. 11:55 17° C wolkig
Mi, 17.10. 11:25 16° C wolkig, Dunst
Mi, 17.10. 11:00 15.0° C wolkig
Mi, 17.10. 10:25 13° C leicht bewölkt, Dunst
Mi, 17.10. 10:00 12.6° C wolkig
Ortszeit Relative Feuchte Sichtweite
Mi, 17.10. 8:00 93% 8 km
Mi, 17.10. 2:00 70% 19 km
Di, 16.10. 20:00 72% 30 km
Di, 16.10. 14:00 50% 27 km
Di, 16.10. 8:00 94% 6 km
Di, 16.10. 2:00 88% 15 km
Mo, 15.10. 20:00 72% 45 km
Mo, 15.10. 14:00 55% 35 km
Ortszeit Relative Feuchte Sichtweite
Mi, 17.10. 13:25 73% >10 km
Mi, 17.10. 13:00 72% 14 km
Mi, 17.10. 12:55 77% >10 km
Mi, 17.10. 12:25 77% >10 km
Mi, 17.10. 12:00 79% 14 km
Mi, 17.10. 11:55 83% >10 km
Mi, 17.10. 11:25 88% 7 km
Mi, 17.10. 11:00 91% 5.0 km
Mi, 17.10. 10:25 88% 8 km
Mi, 17.10. 10:00 86% 7 km
Ortszeit Niederschlagsmenge Niederschlagsart
Mi, 17.10. 8:00 0.0 l/m2 in 12 Std. -
Mi, 17.10. 2:00 0.0 l/m2 in 6 Std. -
Di, 16.10. 20:00 0.0 l/m2 in 12 Std. -
Di, 16.10. 14:00 0.0 l/m2 in 6 Std. -
Di, 16.10. 8:00 0.0 l/m2 in 12 Std. -
Di, 16.10. 2:00 0.0 l/m2 in 6 Std. -
Mo, 15.10. 20:00 0.0 l/m2 in 12 Std. -
Mo, 15.10. 14:00 0.0 l/m2 in 6 Std. -
Ortszeit Niederschlagsmenge Niederschlagsart
Mi, 17.10. 13:25 keine Meldung -
Mi, 17.10. 13:00 0.0 l/m2 in 1 Std. -
Mi, 17.10. 12:55 keine Meldung -
Mi, 17.10. 12:25 keine Meldung -
Mi, 17.10. 12:00 0.0 l/m2 in 1 Std. -
Mi, 17.10. 11:55 keine Meldung -
Mi, 17.10. 11:25 keine Meldung -
Mi, 17.10. 11:00 keine Meldung -
Mi, 17.10. 10:25 keine Meldung -
Mi, 17.10. 10:00 0.0 l/m2 in 1 Std. -
Ortszeit Stärke Spitze Richtung
km/h Bft. km/h Grad Sektor
Mi, 17.10. 8:00 4 1 11 120° SO
Mi, 17.10. 2:00 7 2 14 150° SO
Di, 16.10. 20:00 7 2 22 110° O
Di, 16.10. 14:00 14 3 22 180° S
Di, 16.10. 8:00 0 0 7 - -
Di, 16.10. 2:00 4 1 11 140° SO
Mo, 15.10. 20:00 7 2 29 120° SO
Mo, 15.10. 14:00 18 3 36 200° S
Ortszeit Stärke Spitze Richtung
km/h Bft. km/h Grad Sektor
Mi, 17.10. 13:25 7 2 - 290° W
Mi, 17.10. 13:00 7 2 14 290° W
Mi, 17.10. 12:55 9 2 - 290° W
Mi, 17.10. 12:25 7 2 - 300° NW
Mi, 17.10. 12:00 11 2 18 310° NW
Mi, 17.10. 11:55 13 3 - 300° NW
Mi, 17.10. 11:25 11 2 - 310° NW
Mi, 17.10. 11:00 7 2 11 310° NW
Mi, 17.10. 10:25 0 0 - - -
Mi, 17.10. 10:00 0 0 7 - -
Ortszeit Untergrenze Bedeckung Gattung
total tief tief mittel hoch
Mi, 17.10. 8:00 5700 m 8/8 8/8 - - -
Mi, 17.10. 2:00 6300 m 8/8 8/8 - - -
Di, 16.10. 20:00 9000 m 8/8 0/8 - - -
Di, 16.10. 14:00 5100 m 8/8 8/8 - - -
Di, 16.10. 8:00 4500 m 8/8 8/8 - - -
Di, 16.10. 2:00 3900 m 8/8 8/8 - - -
Mo, 15.10. 20:00 3300 m 8/8 8/8 - - -
Mo, 15.10. 14:00 3900 m 8/8 7/8 - - -
Ortszeit Bedeckungsgrad in Achtel und Wolkenuntergrenze
Mi, 17.10. 13:25 8(8700m)
Mi, 17.10. 13:00 8(8700m)
Mi, 17.10. 12:55 8(8700m)
Mi, 17.10. 12:25 8(9000m)
Mi, 17.10. 12:00 7(9000m)
Mi, 17.10. 11:55 8(9000m)
Mi, 17.10. 11:25 8(9000m)
Mi, 17.10. 11:00 3(90m) 4(150m) 5(180m)
Mi, 17.10. 10:25 3-4(6300m)
Mi, 17.10. 10:00 3(6600m) 7(9000m)
Ortszeit Luftdruck NN (hPa) Tendenz (hPa in 3 Std.)
Mi, 17.10. 8:00 1018 + 0,5
Mi, 17.10. 2:00 1018 - 0,6
Di, 16.10. 20:00 1018 + 0,4
Di, 16.10. 14:00 1018 + 0,3
Di, 16.10. 8:00 1018 + 0,9
Di, 16.10. 2:00 1016 + 0,7
Mo, 15.10. 20:00 1014 + 1,3
Mo, 15.10. 14:00 1012 + 0,6
Ortszeit Luftdruck NN (hPa) Tendenz (hPa in 3 Std.)
Mi, 17.10. 13:25 1019 keine Meldung
Mi, 17.10. 13:00 1019 + 0,2
Mi, 17.10. 12:55 1019 keine Meldung
Mi, 17.10. 12:25 1019 keine Meldung
Mi, 17.10. 12:00 1020 + 0,6
Mi, 17.10. 11:55 1019 keine Meldung
Mi, 17.10. 11:25 1019 keine Meldung
Mi, 17.10. 11:00 1019 + 1,0
Mi, 17.10. 10:25 1019 keine Meldung
Mi, 17.10. 10:00 1019 + 1,1
Ortszeit Schneehöhe (cm)
Mi, 17.10. 8:00 -
Mi, 17.10. 2:00 -
Di, 16.10. 20:00 -
Di, 16.10. 14:00 -
Di, 16.10. 8:00 -
Di, 16.10. 2:00 -
Mo, 15.10. 20:00 -
Mo, 15.10. 14:00 -
Ortszeit Schneehöhe (cm)
Mi, 17.10. 13:25 -
Mi, 17.10. 13:00 -
Mi, 17.10. 12:55 -
Mi, 17.10. 12:25 -
Mi, 17.10. 12:00 -
Mi, 17.10. 11:55 -
Mi, 17.10. 11:25 -
Mi, 17.10. 11:00 -
Mi, 17.10. 10:25 -
Mi, 17.10. 10:00 -
Link zu dieser Seite / Seite empfehlen

Das Wetter in ...